Eagle, Alaska
Current Conditions -  °F | °C
As of 4:53 PM on Friday 24 Oct 2014 (Local Time) from PAEG Reporting Station
Overcast Overcast  
Wind Chill: 24°   Ceiling: 8000
Heat Index: 24°   Visibility: 10mi
Dew Point: 17°   Wind: 0mph
Humidity: 75%   Direction: NA
Pressure: 29.86"   Gusts: NA
Location:  64.78°N, 141.21°W
Report Text: PAEG 250053Z AUTO 00000KT 10SM OVC080 M04/M08 A2986 RMK AO2 SLP127 T10441083 TSNO
Loading
Personal Weather Stations






























Interactive Weather Map
Tropical Storm Tracking
New forecast layout! Learn more

10-Day Weather Forecast

Advertisements
Track Severe Weather on mobile